sensor_id;sensor_type;location;lat;lon;timestamp;P1;durP1;ratioP1;P2;durP2;ratioP2
27642;SDS011;15053;48.618;10.024;2023-03-16T00:00:14;27.60;;;13.18;;
27642;SDS011;15053;48.618;10.024;2023-03-16T00:02:41;23.23;;;13.70;;
27642;SDS011;15053;48.618;10.024;2023-03-16T00:05:10;23.80;;;14.07;;
27642;SDS011;15053;48.618;10.024;2023-03-16T00:07:38;24.50;;;13.30;;
27642;SDS011;15053;48.618;10.024;2023-03-16T00:10:07;29.02;;;14.80;;
27642;SDS011;15053;48.618;10.024;2023-03-16T00:12:34;32.58;;;14.95;;
27642;SDS011;15053;48.618;10.024;2023-03-16T00:15:01;27.40;;;13.85;;
27642;SDS011;15053;48.618;10.024;2023-03-16T00:17:28;24.13;;;13.13;;
27642;SDS011;15053;48.618;10.024;2023-03-16T00:19:55;26.13;;;13.35;;
27642;SDS011;15053;48.618;10.024;2023-03-16T00:22:23;22.33;;;12.93;;
27642;SDS011;15053;48.618;10.024;2023-03-16T00:24:51;23.30;;;14.20;;
27642;SDS011;15053;48.618;10.024;2023-03-16T00:27:18;24.35;;;13.57;;
27642;SDS011;15053;48.618;10.024;2023-03-16T00:29:49;26.38;;;13.27;;
27642;SDS011;15053;48.618;10.024;2023-03-16T00:32:22;25.48;;;13.85;;
27642;SDS011;15053;48.618;10.024;2023-03-16T00:34:53;23.80;;;13.43;;
27642;SDS011;15053;48.618;10.024;2023-03-16T00:37:21;26.98;;;13.35;;
27642;SDS011;15053;48.618;10.024;2023-03-16T00:39:49;31.17;;;14.45;;
27642;SDS011;15053;48.618;10.024;2023-03-16T00:42:17;21.85;;;13.63;;
27642;SDS011;15053;48.618;10.024;2023-03-16T00:44:45;26.05;;;15.07;;
27642;SDS011;15053;48.618;10.024;2023-03-16T00:47:12;32.00;;;15.32;;
27642;SDS011;15053;48.618;10.024;2023-03-16T00:49:42;34.28;;;16.50;;
27642;SDS011;15053;48.618;10.024;2023-03-16T00:52:10;42.55;;;20.67;;
27642;SDS011;15053;48.618;10.024;2023-03-16T00:54:41;42.92;;;19.88;;
27642;SDS011;15053;48.618;10.024;2023-03-16T00:57:10;36.10;;;17.80;;
27642;SDS011;15053;48.618;10.024;2023-03-16T00:59:37;61.40;;;19.80;;
27642;SDS011;15053;48.618;10.024;2023-03-16T01:02:05;35.97;;;18.00;;
27642;SDS011;15053;48.618;10.024;2023-03-16T01:04:32;45.10;;;18.63;;
27642;SDS011;15053;48.618;10.024;2023-03-16T01:07:04;113.68;;;21.98;;
27642;SDS011;15053;48.618;10.024;2023-03-16T01:09:31;137.27;;;26.67;;
27642;SDS011;15053;48.618;10.024;2023-03-16T01:12:03;136.43;;;25.30;;
27642;SDS011;15053;48.618;10.024;2023-03-16T01:14:32;149.40;;;25.23;;
27642;SDS011;15053;48.618;10.024;2023-03-16T01:17:02;153.75;;;26.73;;
27642;SDS011;15053;48.618;10.024;2023-03-16T01:19:31;193.32;;;29.00;;
27642;SDS011;15053;48.618;10.024;2023-03-16T01:21:59;176.75;;;24.80;;
27642;SDS011;15053;48.618;10.024;2023-03-16T01:24:25;213.20;;;25.75;;
27642;SDS011;15053;48.618;10.024;2023-03-16T01:26:52;133.45;;;23.85;;
27642;SDS011;15053;48.618;10.024;2023-03-16T01:29:19;186.05;;;25.88;;
27642;SDS011;15053;48.618;10.024;2023-03-16T01:31:46;91.40;;;21.73;;
27642;SDS011;15053;48.618;10.024;2023-03-16T01:34:15;110.18;;;24.60;;
27642;SDS011;15053;48.618;10.024;2023-03-16T01:36:46;160.48;;;23.48;;
27642;SDS011;15053;48.618;10.024;2023-03-16T01:39:21;113.40;;;22.60;;
27642;SDS011;15053;48.618;10.024;2023-03-16T01:41:48;101.18;;;22.80;;
27642;SDS011;15053;48.618;10.024;2023-03-16T01:44:19;57.03;;;19.58;;
27642;SDS011;15053;48.618;10.024;2023-03-16T01:46:49;79.70;;;22.77;;
27642;SDS011;15053;48.618;10.024;2023-03-16T01:49:17;89.97;;;22.73;;
27642;SDS011;15053;48.618;10.024;2023-03-16T01:52:02;146.27;;;24.08;;
27642;SDS011;15053;48.618;10.024;2023-03-16T01:54:34;208.27;;;26.45;;
27642;SDS011;15053;48.618;10.024;2023-03-16T01:57:05;60.70;;;19.23;;
27642;SDS011;15053;48.618;10.024;2023-03-16T01:59:35;78.85;;;20.27;;
27642;SDS011;15053;48.618;10.024;2023-03-16T02:02:05;63.22;;;19.02;;
27642;SDS011;15053;48.618;10.024;2023-03-16T02:04:39;80.00;;;20.65;;
27642;SDS011;15053;48.618;10.024;2023-03-16T02:07:12;58.95;;;19.60;;
27642;SDS011;15053;48.618;10.024;2023-03-16T02:09:44;65.57;;;19.05;;
27642;SDS011;15053;48.618;10.024;2023-03-16T02:12:15;202.43;;;26.00;;
27642;SDS011;15053;48.618;10.024;2023-03-16T02:14:47;108.50;;;23.48;;
27642;SDS011;15053;48.618;10.024;2023-03-16T02:17:16;321.65;;;38.05;;
27642;SDS011;15053;48.618;10.024;2023-03-16T02:19:50;58.85;;;18.42;;
27642;SDS011;15053;48.618;10.024;2023-03-16T02:22:23;81.85;;;20.35;;
27642;SDS011;15053;48.618;10.024;2023-03-16T02:24:51;269.60;;;26.58;;
27642;SDS011;15053;48.618;10.024;2023-03-16T02:27:34;111.60;;;20.77;;
27642;SDS011;15053;48.618;10.024;2023-03-16T02:30:15;73.55;;;19.10;;
27642;SDS011;15053;48.618;10.024;2023-03-16T02:32:56;64.60;;;18.15;;
27642;SDS011;15053;48.618;10.024;2023-03-16T02:35:23;68.40;;;17.70;;
27642;SDS011;15053;48.618;10.024;2023-03-16T02:37:50;85.45;;;17.73;;
27642;SDS011;15053;48.618;10.024;2023-03-16T02:40:25;29.85;;;13.57;;
27642;SDS011;15053;48.618;10.024;2023-03-16T02:43:07;30.83;;;14.90;;
27642;SDS011;15053;48.618;10.024;2023-03-16T02:45:45;38.72;;;15.57;;
27642;SDS011;15053;48.618;10.024;2023-03-16T02:50:45;99.45;;;18.13;;
27642;SDS011;15053;48.618;10.024;2023-03-16T02:53:15;64.75;;;18.17;;
27642;SDS011;15053;48.618;10.024;2023-03-16T02:55:42;110.13;;;19.50;;
27642;SDS011;15053;48.618;10.024;2023-03-16T02:58:10;231.07;;;27.10;;
27642;SDS011;15053;48.618;10.024;2023-03-16T03:00:37;122.75;;;19.90;;
27642;SDS011;15053;48.618;10.024;2023-03-16T03:03:04;273.67;;;27.90;;
27642;SDS011;15053;48.618;10.024;2023-03-16T03:05:34;291.20;;;32.65;;
27642;SDS011;15053;48.618;10.024;2023-03-16T03:08:02;236.43;;;27.10;;
27642;SDS011;15053;48.618;10.024;2023-03-16T03:10:30;140.75;;;24.15;;
27642;SDS011;15053;48.618;10.024;2023-03-16T03:12:56;174.13;;;23.00;;
27642;SDS011;15053;48.618;10.024;2023-03-16T03:15:23;281.35;;;31.05;;
27642;SDS011;15053;48.618;10.024;2023-03-16T03:18:04;130.30;;;22.23;;
27642;SDS011;15053;48.618;10.024;2023-03-16T03:20:32;198.93;;;23.90;;
27642;SDS011;15053;48.618;10.024;2023-03-16T03:22:58;120.13;;;22.08;;
27642;SDS011;15053;48.618;10.024;2023-03-16T03:25:25;162.35;;;20.98;;
27642;SDS011;15053;48.618;10.024;2023-03-16T03:27:52;121.22;;;19.30;;
27642;SDS011;15053;48.618;10.024;2023-03-16T03:30:23;74.60;;;18.55;;
27642;SDS011;15053;48.618;10.024;2023-03-16T03:32:51;100.40;;;20.25;;
27642;SDS011;15053;48.618;10.024;2023-03-16T03:35:19;93.65;;;19.23;;
27642;SDS011;15053;48.618;10.024;2023-03-16T03:37:46;75.05;;;20.88;;
27642;SDS011;15053;48.618;10.024;2023-03-16T03:40:15;125.30;;;23.02;;
27642;SDS011;15053;48.618;10.024;2023-03-16T03:42:45;125.25;;;20.88;;
27642;SDS011;15053;48.618;10.024;2023-03-16T03:45:13;65.70;;;19.58;;
27642;SDS011;15053;48.618;10.024;2023-03-16T03:47:40;75.35;;;18.85;;
27642;SDS011;15053;48.618;10.024;2023-03-16T03:50:12;95.00;;;20.20;;
27642;SDS011;15053;48.618;10.024;2023-03-16T03:53:05;174.90;;;21.58;;
27642;SDS011;15053;48.618;10.024;2023-03-16T03:55:42;73.38;;;19.92;;
27642;SDS011;15053;48.618;10.024;2023-03-16T03:58:08;85.90;;;16.77;;
27642;SDS011;15053;48.618;10.024;2023-03-16T04:00:35;176.40;;;23.48;;
27642;SDS011;15053;48.618;10.024;2023-03-16T04:03:01;165.02;;;22.52;;
27642;SDS011;15053;48.618;10.024;2023-03-16T04:05:33;210.88;;;26.85;;
27642;SDS011;15053;48.618;10.024;2023-03-16T04:08:00;256.05;;;27.63;;
27642;SDS011;15053;48.618;10.024;2023-03-16T04:10:27;164.27;;;22.25;;
27642;SDS011;15053;48.618;10.024;2023-03-16T04:12:57;117.18;;;17.77;;
27642;SDS011;15053;48.618;10.024;2023-03-16T04:15:26;110.07;;;17.08;;
27642;SDS011;15053;48.618;10.024;2023-03-16T04:18:08;96.40;;;19.15;;
27642;SDS011;15053;48.618;10.024;2023-03-16T04:20:35;61.75;;;15.07;;
27642;SDS011;15053;48.618;10.024;2023-03-16T04:23:02;113.60;;;18.35;;
27642;SDS011;15053;48.618;10.024;2023-03-16T04:25:30;125.88;;;18.38;;
27642;SDS011;15053;48.618;10.024;2023-03-16T04:27:57;97.15;;;19.15;;
27642;SDS011;15053;48.618;10.024;2023-03-16T04:30:27;96.70;;;18.83;;
27642;SDS011;15053;48.618;10.024;2023-03-16T04:33:05;73.35;;;17.83;;
27642;SDS011;15053;48.618;10.024;2023-03-16T04:35:32;98.80;;;17.33;;
27642;SDS011;15053;48.618;10.024;2023-03-16T04:37:58;134.90;;;18.17;;
27642;SDS011;15053;48.618;10.024;2023-03-16T04:40:35;90.00;;;16.60;;
27642;SDS011;15053;48.618;10.024;2023-03-16T04:43:08;76.40;;;16.83;;
27642;SDS011;15053;48.618;10.024;2023-03-16T04:45:35;81.45;;;16.25;;
27642;SDS011;15053;48.618;10.024;2023-03-16T04:48:01;106.15;;;19.80;;
27642;SDS011;15053;48.618;10.024;2023-03-16T04:50:28;118.53;;;19.58;;
27642;SDS011;15053;48.618;10.024;2023-03-16T04:52:55;75.90;;;15.95;;
27642;SDS011;15053;48.618;10.024;2023-03-16T04:55:23;116.63;;;20.30;;
27642;SDS011;15053;48.618;10.024;2023-03-16T04:57:50;89.05;;;19.25;;
27642;SDS011;15053;48.618;10.024;2023-03-16T05:00:18;88.60;;;18.20;;
27642;SDS011;15053;48.618;10.024;2023-03-16T05:02:54;93.13;;;19.55;;
27642;SDS011;15053;48.618;10.024;2023-03-16T05:05:21;113.30;;;20.77;;
27642;SDS011;15053;48.618;10.024;2023-03-16T05:07:47;88.13;;;19.65;;
27642;SDS011;15053;48.618;10.024;2023-03-16T05:10:16;117.07;;;20.13;;
27642;SDS011;15053;48.618;10.024;2023-03-16T05:12:45;68.53;;;17.70;;
27642;SDS011;15053;48.618;10.024;2023-03-16T05:15:12;140.57;;;22.20;;
27642;SDS011;15053;48.618;10.024;2023-03-16T05:17:40;101.30;;;21.20;;
27642;SDS011;15053;48.618;10.024;2023-03-16T05:20:09;82.45;;;20.33;;
27642;SDS011;15053;48.618;10.024;2023-03-16T05:22:45;102.32;;;22.85;;
27642;SDS011;15053;48.618;10.024;2023-03-16T05:25:21;106.55;;;23.77;;
27642;SDS011;15053;48.618;10.024;2023-03-16T05:27:51;124.15;;;30.48;;
27642;SDS011;15053;48.618;10.024;2023-03-16T05:30:34;123.28;;;29.83;;
27642;SDS011;15053;48.618;10.024;2023-03-16T05:33:04;106.78;;;26.00;;
27642;SDS011;15053;48.618;10.024;2023-03-16T05:35:31;138.18;;;22.60;;
27642;SDS011;15053;48.618;10.024;2023-03-16T05:38:02;123.90;;;26.67;;
27642;SDS011;15053;48.618;10.024;2023-03-16T05:40:32;87.10;;;23.75;;
27642;SDS011;15053;48.618;10.024;2023-03-16T05:43:09;75.97;;;22.52;;
27642;SDS011;15053;48.618;10.024;2023-03-16T05:45:41;100.72;;;21.70;;
27642;SDS011;15053;48.618;10.024;2023-03-16T05:48:12;148.63;;;24.13;;
27642;SDS011;15053;48.618;10.024;2023-03-16T05:50:44;87.30;;;20.38;;
27642;SDS011;15053;48.618;10.024;2023-03-16T05:53:12;83.88;;;20.67;;
27642;SDS011;15053;48.618;10.024;2023-03-16T05:55:40;85.45;;;19.63;;
27642;SDS011;15053;48.618;10.024;2023-03-16T05:58:10;75.00;;;20.05;;
27642;SDS011;15053;48.618;10.024;2023-03-16T06:00:39;105.68;;;22.00;;
27642;SDS011;15053;48.618;10.024;2023-03-16T06:03:20;84.20;;;22.13;;
27642;SDS011;15053;48.618;10.024;2023-03-16T06:05:48;87.13;;;22.77;;
27642;SDS011;15053;48.618;10.024;2023-03-16T06:08:21;97.53;;;21.85;;
27642;SDS011;15053;48.618;10.024;2023-03-16T06:10:50;139.57;;;26.38;;
27642;SDS011;15053;48.618;10.024;2023-03-16T06:13:17;71.45;;;22.00;;
27642;SDS011;15053;48.618;10.024;2023-03-16T06:15:44;85.57;;;21.63;;
27642;SDS011;15053;48.618;10.024;2023-03-16T06:18:12;136.05;;;23.25;;
27642;SDS011;15053;48.618;10.024;2023-03-16T06:20:38;88.97;;;21.20;;
27642;SDS011;15053;48.618;10.024;2023-03-16T06:23:05;98.50;;;20.45;;
27642;SDS011;15053;48.618;10.024;2023-03-16T06:25:31;84.95;;;20.40;;
27642;SDS011;15053;48.618;10.024;2023-03-16T06:27:58;77.97;;;19.90;;
27642;SDS011;15053;48.618;10.024;2023-03-16T06:30:25;121.25;;;22.17;;
27642;SDS011;15053;48.618;10.024;2023-03-16T06:32:52;87.07;;;18.50;;
27642;SDS011;15053;48.618;10.024;2023-03-16T06:35:18;104.53;;;23.05;;
27642;SDS011;15053;48.618;10.024;2023-03-16T06:38:06;70.53;;;21.02;;
27642;SDS011;15053;48.618;10.024;2023-03-16T06:41:05;105.00;;;19.88;;
27642;SDS011;15053;48.618;10.024;2023-03-16T06:43:33;141.88;;;24.77;;
27642;SDS011;15053;48.618;10.024;2023-03-16T06:46:00;106.32;;;20.15;;
27642;SDS011;15053;48.618;10.024;2023-03-16T06:48:27;101.30;;;24.25;;
27642;SDS011;15053;48.618;10.024;2023-03-16T06:50:54;59.90;;;19.65;;
27642;SDS011;15053;48.618;10.024;2023-03-16T06:53:24;36.72;;;16.55;;
27642;SDS011;15053;48.618;10.024;2023-03-16T06:55:52;39.08;;;18.35;;
27642;SDS011;15053;48.618;10.024;2023-03-16T06:58:19;42.38;;;17.60;;
27642;SDS011;15053;48.618;10.024;2023-03-16T07:00:46;63.30;;;19.77;;
27642;SDS011;15053;48.618;10.024;2023-03-16T07:03:12;46.70;;;18.02;;
27642;SDS011;15053;48.618;10.024;2023-03-16T07:05:45;53.10;;;18.60;;
27642;SDS011;15053;48.618;10.024;2023-03-16T07:08:11;43.03;;;18.55;;
27642;SDS011;15053;48.618;10.024;2023-03-16T07:10:40;44.70;;;18.67;;
27642;SDS011;15053;48.618;10.024;2023-03-16T07:13:07;38.50;;;17.23;;
27642;SDS011;15053;48.618;10.024;2023-03-16T07:15:33;40.72;;;18.40;;
27642;SDS011;15053;48.618;10.024;2023-03-16T07:18:01;33.45;;;17.58;;
27642;SDS011;15053;48.618;10.024;2023-03-16T07:20:27;32.58;;;17.05;;
27642;SDS011;15053;48.618;10.024;2023-03-16T07:22:58;35.88;;;16.50;;
27642;SDS011;15053;48.618;10.024;2023-03-16T07:25:25;37.55;;;18.27;;
27642;SDS011;15053;48.618;10.024;2023-03-16T07:27:53;33.50;;;16.50;;
27642;SDS011;15053;48.618;10.024;2023-03-16T07:30:26;37.15;;;16.98;;
27642;SDS011;15053;48.618;10.024;2023-03-16T07:32:53;39.42;;;18.17;;
27642;SDS011;15053;48.618;10.024;2023-03-16T07:35:21;37.67;;;18.20;;
27642;SDS011;15053;48.618;10.024;2023-03-16T07:37:48;36.38;;;18.20;;
27642;SDS011;15053;48.618;10.024;2023-03-16T07:40:17;33.70;;;17.45;;
27642;SDS011;15053;48.618;10.024;2023-03-16T07:42:43;35.85;;;18.05;;
27642;SDS011;15053;48.618;10.024;2023-03-16T07:45:23;34.85;;;17.50;;
27642;SDS011;15053;48.618;10.024;2023-03-16T07:47:50;34.50;;;18.38;;
27642;SDS011;15053;48.618;10.024;2023-03-16T07:50:29;31.35;;;16.17;;
27642;SDS011;15053;48.618;10.024;2023-03-16T07:52:56;31.63;;;16.52;;
27642;SDS011;15053;48.618;10.024;2023-03-16T07:55:23;29.48;;;16.00;;
27642;SDS011;15053;48.618;10.024;2023-03-16T07:57:50;33.83;;;16.17;;
27642;SDS011;15053;48.618;10.024;2023-03-16T08:00:24;26.05;;;14.25;;
27642;SDS011;15053;48.618;10.024;2023-03-16T08:02:50;32.90;;;16.27;;
27642;SDS011;15053;48.618;10.024;2023-03-16T08:05:18;29.30;;;15.98;;
27642;SDS011;15053;48.618;10.024;2023-03-16T08:07:49;32.00;;;16.05;;
27642;SDS011;15053;48.618;10.024;2023-03-16T08:12:57;31.80;;;15.68;;
27642;SDS011;15053;48.618;10.024;2023-03-16T08:15:24;31.90;;;17.13;;
27642;SDS011;15053;48.618;10.024;2023-03-16T08:17:58;32.05;;;16.70;;
27642;SDS011;15053;48.618;10.024;2023-03-16T08:20:25;29.48;;;15.98;;
27642;SDS011;15053;48.618;10.024;2023-03-16T08:22:52;33.08;;;15.80;;
27642;SDS011;15053;48.618;10.024;2023-03-16T08:25:23;27.90;;;16.20;;
27642;SDS011;15053;48.618;10.024;2023-03-16T08:28:08;31.65;;;16.63;;
27642;SDS011;15053;48.618;10.024;2023-03-16T08:30:42;32.80;;;15.85;;
27642;SDS011;15053;48.618;10.024;2023-03-16T08:33:32;28.23;;;15.60;;
27642;SDS011;15053;48.618;10.024;2023-03-16T08:35:59;30.35;;;15.45;;
27642;SDS011;15053;48.618;10.024;2023-03-16T08:38:26;27.02;;;15.40;;
27642;SDS011;15053;48.618;10.024;2023-03-16T08:40:54;32.08;;;15.70;;
27642;SDS011;15053;48.618;10.024;2023-03-16T08:43:22;29.55;;;14.73;;
27642;SDS011;15053;48.618;10.024;2023-03-16T08:45:50;32.90;;;15.43;;
27642;SDS011;15053;48.618;10.024;2023-03-16T08:48:21;29.27;;;16.05;;
27642;SDS011;15053;48.618;10.024;2023-03-16T08:50:49;28.08;;;16.30;;
27642;SDS011;15053;48.618;10.024;2023-03-16T08:53:16;26.02;;;14.65;;
27642;SDS011;15053;48.618;10.024;2023-03-16T08:55:44;42.67;;;17.35;;
27642;SDS011;15053;48.618;10.024;2023-03-16T08:58:11;31.42;;;17.20;;
27642;SDS011;15053;48.618;10.024;2023-03-16T09:00:39;29.35;;;16.67;;
27642;SDS011;15053;48.618;10.024;2023-03-16T09:03:06;27.25;;;15.27;;
27642;SDS011;15053;48.618;10.024;2023-03-16T09:05:32;34.38;;;16.48;;
27642;SDS011;15053;48.618;10.024;2023-03-16T09:07:59;31.63;;;18.00;;
27642;SDS011;15053;48.618;10.024;2023-03-16T09:10:26;31.52;;;16.88;;
27642;SDS011;15053;48.618;10.024;2023-03-16T09:12:54;37.90;;;19.88;;
27642;SDS011;15053;48.618;10.024;2023-03-16T09:15:20;34.60;;;17.90;;
27642;SDS011;15053;48.618;10.024;2023-03-16T09:17:47;31.48;;;16.73;;
27642;SDS011;15053;48.618;10.024;2023-03-16T09:20:14;31.40;;;15.38;;
27642;SDS011;15053;48.618;10.024;2023-03-16T09:22:53;31.70;;;16.45;;
27642;SDS011;15053;48.618;10.024;2023-03-16T09:25:21;31.65;;;16.67;;
27642;SDS011;15053;48.618;10.024;2023-03-16T09:27:48;32.03;;;17.10;;
27642;SDS011;15053;48.618;10.024;2023-03-16T09:30:14;29.15;;;16.30;;
27642;SDS011;15053;48.618;10.024;2023-03-16T09:32:42;24.23;;;15.05;;
27642;SDS011;15053;48.618;10.024;2023-03-16T09:35:08;33.05;;;17.35;;
27642;SDS011;15053;48.618;10.024;2023-03-16T09:37:35;30.33;;;15.68;;
27642;SDS011;15053;48.618;10.024;2023-03-16T09:40:23;29.17;;;16.93;;
27642;SDS011;15053;48.618;10.024;2023-03-16T09:48:28;30.02;;;15.93;;
27642;SDS011;15053;48.618;10.024;2023-03-16T09:50:57;25.58;;;15.13;;
27642;SDS011;15053;48.618;10.024;2023-03-16T09:53:32;33.70;;;17.27;;
27642;SDS011;15053;48.618;10.024;2023-03-16T09:56:07;31.63;;;16.40;;
27642;SDS011;15053;48.618;10.024;2023-03-16T09:58:36;25.50;;;15.13;;
27642;SDS011;15053;48.618;10.024;2023-03-16T10:03:53;28.45;;;16.65;;
27642;SDS011;15053;48.618;10.024;2023-03-16T10:06:44;27.05;;;15.60;;
27642;SDS011;15053;48.618;10.024;2023-03-16T10:12:03;28.55;;;15.65;;
27642;SDS011;15053;48.618;10.024;2023-03-16T10:14:36;30.52;;;15.80;;
27642;SDS011;15053;48.618;10.024;2023-03-16T10:17:13;25.05;;;13.75;;
27642;SDS011;15053;48.618;10.024;2023-03-16T10:19:47;31.35;;;15.27;;
27642;SDS011;15053;48.618;10.024;2023-03-16T10:22:21;21.58;;;13.25;;
27642;SDS011;15053;48.618;10.024;2023-03-16T10:27:37;22.05;;;12.52;;
27642;SDS011;15053;48.618;10.024;2023-03-16T10:32:45;22.00;;;14.05;;
27642;SDS011;15053;48.618;10.024;2023-03-16T10:35:19;19.92;;;12.90;;
27642;SDS011;15053;48.618;10.024;2023-03-16T10:37:54;23.35;;;12.73;;
27642;SDS011;15053;48.618;10.024;2023-03-16T10:40:22;20.58;;;11.98;;
27642;SDS011;15053;48.618;10.024;2023-03-16T10:42:48;22.13;;;13.40;;
27642;SDS011;15053;48.618;10.024;2023-03-16T10:48:06;22.52;;;12.73;;
27642;SDS011;15053;48.618;10.024;2023-03-16T10:50:34;20.13;;;12.55;;
27642;SDS011;15053;48.618;10.024;2023-03-16T10:53:02;24.65;;;12.57;;
27642;SDS011;15053;48.618;10.024;2023-03-16T10:55:30;23.17;;;13.52;;
27642;SDS011;15053;48.618;10.024;2023-03-16T10:58:07;20.85;;;12.65;;
27642;SDS011;15053;48.618;10.024;2023-03-16T11:00:34;19.70;;;12.15;;
27642;SDS011;15053;48.618;10.024;2023-03-16T11:03:18;20.48;;;12.15;;
27642;SDS011;15053;48.618;10.024;2023-03-16T11:05:59;19.13;;;12.85;;
27642;SDS011;15053;48.618;10.024;2023-03-16T11:08:34;22.55;;;13.45;;
27642;SDS011;15053;48.618;10.024;2023-03-16T11:11:10;19.58;;;12.65;;
27642;SDS011;15053;48.618;10.024;2023-03-16T11:13:43;19.20;;;12.68;;
27642;SDS011;15053;48.618;10.024;2023-03-16T11:16:25;18.88;;;12.27;;
27642;SDS011;15053;48.618;10.024;2023-03-16T11:19:16;20.83;;;12.63;;
27642;SDS011;15053;48.618;10.024;2023-03-16T11:21:55;17.77;;;10.43;;
27642;SDS011;15053;48.618;10.024;2023-03-16T11:27:36;17.67;;;11.77;;
27642;SDS011;15053;48.618;10.024;2023-03-16T11:30:38;19.55;;;12.27;;
27642;SDS011;15053;48.618;10.024;2023-03-16T11:33:07;18.10;;;11.90;;
27642;SDS011;15053;48.618;10.024;2023-03-16T11:35:50;18.95;;;12.27;;
27642;SDS011;15053;48.618;10.024;2023-03-16T11:38:33;19.35;;;12.10;;
27642;SDS011;15053;48.618;10.024;2023-03-16T11:41:10;19.10;;;12.57;;
27642;SDS011;15053;48.618;10.024;2023-03-16T11:52:04;18.48;;;12.77;;
27642;SDS011;15053;48.618;10.024;2023-03-16T11:54:58;19.15;;;11.45;;
27642;SDS011;15053;48.618;10.024;2023-03-16T11:57:35;16.77;;;10.98;;
27642;SDS011;15053;48.618;10.024;2023-03-16T12:03:08;19.65;;;11.43;;
27642;SDS011;15053;48.618;10.024;2023-03-16T12:12:19;19.88;;;12.13;;
27642;SDS011;15053;48.618;10.024;2023-03-16T12:14:40;15.05;;;10.75;;
27642;SDS011;15053;48.618;10.024;2023-03-16T12:17:13;21.33;;;12.35;;
27642;SDS011;15053;48.618;10.024;2023-03-16T12:22:21;16.70;;;10.38;;
27642;SDS011;15053;48.618;10.024;2023-03-16T12:24:53;14.88;;;10.63;;
27642;SDS011;15053;48.618;10.024;2023-03-16T12:27:21;19.40;;;11.57;;
27642;SDS011;15053;48.618;10.024;2023-03-16T12:32:37;17.20;;;9.23;;
27642;SDS011;15053;48.618;10.024;2023-03-16T12:37:59;13.98;;;9.23;;
27642;SDS011;15053;48.618;10.024;2023-03-16T12:40:53;9.98;;;7.88;;
27642;SDS011;15053;48.618;10.024;2023-03-16T12:49:13;8.75;;;5.97;;
27642;SDS011;15053;48.618;10.024;2023-03-16T12:51:41;9.32;;;6.68;;
27642;SDS011;15053;48.618;10.024;2023-03-16T12:54:18;10.55;;;6.88;;
27642;SDS011;15053;48.618;10.024;2023-03-16T12:56:46;8.77;;;6.38;;
27642;SDS011;15053;48.618;10.024;2023-03-16T12:59:16;7.30;;;5.53;;
27642;SDS011;15053;48.618;10.024;2023-03-16T13:01:47;8.77;;;5.80;;
27642;SDS011;15053;48.618;10.024;2023-03-16T13:07:28;9.25;;;5.03;;
27642;SDS011;15053;48.618;10.024;2023-03-16T13:09:51;7.65;;;5.97;;
27642;SDS011;15053;48.618;10.024;2023-03-16T13:12:23;8.85;;;5.22;;
27642;SDS011;15053;48.618;10.024;2023-03-16T13:14:53;7.85;;;5.68;;
27642;SDS011;15053;48.618;10.024;2023-03-16T13:17:28;6.72;;;5.65;;
27642;SDS011;15053;48.618;10.024;2023-03-16T13:20:48;7.25;;;5.32;;
27642;SDS011;15053;48.618;10.024;2023-03-16T13:23:07;8.00;;;5.32;;
27642;SDS011;15053;48.618;10.024;2023-03-16T13:26:09;10.15;;;6.60;;
27642;SDS011;15053;48.618;10.024;2023-03-16T13:28:42;9.38;;;5.75;;
27642;SDS011;15053;48.618;10.024;2023-03-16T13:31:24;8.20;;;6.07;;
27642;SDS011;15053;48.618;10.024;2023-03-16T13:33:55;9.88;;;5.95;;
27642;SDS011;15053;48.618;10.024;2023-03-16T13:36:26;6.90;;;5.32;;
27642;SDS011;15053;48.618;10.024;2023-03-16T13:38:55;5.82;;;4.88;;
27642;SDS011;15053;48.618;10.024;2023-03-16T13:41:30;10.82;;;5.68;;
27642;SDS011;15053;48.618;10.024;2023-03-16T13:43:56;7.15;;;5.13;;
27642;SDS011;15053;48.618;10.024;2023-03-16T13:46:26;12.00;;;5.38;;
27642;SDS011;15053;48.618;10.024;2023-03-16T13:48:56;7.68;;;5.35;;
27642;SDS011;15053;48.618;10.024;2023-03-16T13:51:25;8.82;;;4.65;;
27642;SDS011;15053;48.618;10.024;2023-03-16T13:53:56;5.22;;;4.43;;
27642;SDS011;15053;48.618;10.024;2023-03-16T13:56:23;5.85;;;4.18;;
27642;SDS011;15053;48.618;10.024;2023-03-16T14:01:26;8.55;;;4.07;;
27642;SDS011;15053;48.618;10.024;2023-03-16T14:03:56;5.95;;;4.97;;
27642;SDS011;15053;48.618;10.024;2023-03-16T14:06:26;6.60;;;4.47;;
27642;SDS011;15053;48.618;10.024;2023-03-16T14:08:55;9.27;;;4.47;;
27642;SDS011;15053;48.618;10.024;2023-03-16T14:11:26;8.15;;;5.13;;
27642;SDS011;15053;48.618;10.024;2023-03-16T14:13:57;10.55;;;4.88;;
27642;SDS011;15053;48.618;10.024;2023-03-16T14:16:26;6.38;;;4.47;;
27642;SDS011;15053;48.618;10.024;2023-03-16T14:19:00;6.00;;;4.50;;
27642;SDS011;15053;48.618;10.024;2023-03-16T14:21:30;6.57;;;4.25;;
27642;SDS011;15053;48.618;10.024;2023-03-16T14:24:00;7.57;;;4.10;;
27642;SDS011;15053;48.618;10.024;2023-03-16T14:26:39;6.22;;;4.10;;
27642;SDS011;15053;48.618;10.024;2023-03-16T14:31:51;5.32;;;4.30;;
27642;SDS011;15053;48.618;10.024;2023-03-16T14:34:20;7.18;;;4.38;;
27642;SDS011;15053;48.618;10.024;2023-03-16T14:37:08;7.43;;;4.28;;
27642;SDS011;15053;48.618;10.024;2023-03-16T14:39:35;5.28;;;4.20;;
27642;SDS011;15053;48.618;10.024;2023-03-16T14:42:02;7.55;;;4.32;;
27642;SDS011;15053;48.618;10.024;2023-03-16T14:44:31;7.32;;;3.97;;
27642;SDS011;15053;48.618;10.024;2023-03-16T14:47:00;4.80;;;3.80;;
27642;SDS011;15053;48.618;10.024;2023-03-16T14:49:33;7.28;;;4.35;;
27642;SDS011;15053;48.618;10.024;2023-03-16T14:54:47;6.70;;;4.90;;
27642;SDS011;15053;48.618;10.024;2023-03-16T14:57:15;9.93;;;5.78;;
27642;SDS011;15053;48.618;10.024;2023-03-16T14:59:42;9.57;;;6.43;;
27642;SDS011;15053;48.618;10.024;2023-03-16T15:02:15;8.93;;;5.88;;
27642;SDS011;15053;48.618;10.024;2023-03-16T15:04:45;8.35;;;5.72;;
27642;SDS011;15053;48.618;10.024;2023-03-16T15:07:23;8.00;;;6.47;;
27642;SDS011;15053;48.618;10.024;2023-03-16T15:09:52;8.32;;;5.32;;
27642;SDS011;15053;48.618;10.024;2023-03-16T15:12:20;10.32;;;6.00;;
27642;SDS011;15053;48.618;10.024;2023-03-16T15:14:50;8.80;;;5.55;;
27642;SDS011;15053;48.618;10.024;2023-03-16T15:17:35;7.05;;;5.32;;
27642;SDS011;15053;48.618;10.024;2023-03-16T15:20:02;8.00;;;5.55;;
27642;SDS011;15053;48.618;10.024;2023-03-16T15:22:32;6.80;;;4.88;;
27642;SDS011;15053;48.618;10.024;2023-03-16T15:25:07;7.45;;;5.03;;
27642;SDS011;15053;48.618;10.024;2023-03-16T15:27:44;6.00;;;4.65;;
27642;SDS011;15053;48.618;10.024;2023-03-16T15:30:16;7.45;;;4.93;;
27642;SDS011;15053;48.618;10.024;2023-03-16T15:32:44;7.57;;;4.30;;
27642;SDS011;15053;48.618;10.024;2023-03-16T15:35:11;11.00;;;5.35;;
27642;SDS011;15053;48.618;10.024;2023-03-16T15:37:37;7.57;;;5.38;;
27642;SDS011;15053;48.618;10.024;2023-03-16T15:40:12;7.22;;;5.05;;
27642;SDS011;15053;48.618;10.024;2023-03-16T15:42:41;6.15;;;4.65;;